Time;durP1;ratioP1;P1;durP2;ratioP2;P2;SDS_P1;SDS_P2;PMS_P1;PMS_P2;Temp;Humidity;BMP_temperature;BMP_pressure;BME280_temperature;BME280_humidity;BME280_pressure;Samples;Min_cycle;Max_cycle;Signal;HPM_P1;HPM_P2
2021/12/15 00:01:15;;;;;;;29.48;20.83;;;9.70;99.90;;;;;;5092233;28;20189;-91
2021/12/15 00:04:43;;;;;;;28.02;19.13;;;10.20;99.90;;;;;;5092861;28;20257;-91
2021/12/15 00:08:11;;;;;;;29.88;19.92;;;9.50;99.90;;;;;;5094813;28;20269;-91
2021/12/15 00:11:36;;;;;;;30.10;18.35;;;10.60;99.90;;;;;;5092620;28;20230;-91
2021/12/15 00:14:59;;;;;;;27.05;19.42;;;8.60;99.90;;;;;;5092124;28;20174;-92
2021/12/15 00:18:24;;;;;;;26.85;19.77;;;11.70;99.90;;;;;;5092316;28;20221;-91
2021/12/15 00:21:50;;;;;;;26.45;18.10;;;8.90;99.90;;;;;;5093570;28;20264;-91
2021/12/15 00:25:15;;;;;;;28.30;18.40;;;9.20;99.90;;;;;;5094343;28;20264;-91
2021/12/15 00:28:42;;;;;;;22.52;18.25;;;11.40;99.90;;;;;;5093333;28;20174;-92
2021/12/15 00:32:06;;;;;;;23.08;17.67;;;8.40;99.90;;;;;;5094099;28;20268;-93
2021/12/15 00:35:32;;;;;;;25.42;16.73;;;10.90;99.90;;;;;;5094870;28;20189;-91
2021/12/15 00:38:57;;;;;;;25.60;17.45;;;7.50;99.90;;;;;;5094631;28;20620;-91
2021/12/15 00:42:22;;;;;;;27.63;20.23;;;9.40;99.90;;;;;;5093271;28;20242;-90
2021/12/15 00:45:48;;;;;;;26.42;17.80;;;8.90;99.90;;;;;;5092843;28;20266;-91
2021/12/15 00:49:13;;;;;;;26.25;18.30;;;8.80;99.90;;;;;;5101678;28;20255;-91
2021/12/15 00:52:39;;;;;;;22.35;16.77;;;7.90;99.90;;;;;;5113121;28;20242;-91
2021/12/15 00:56:04;;;;;;;22.15;17.02;;;7.70;99.90;;;;;;5114042;28;20176;-90
2021/12/15 00:59:29;;;;;;;32.20;18.10;;;9.20;99.90;;;;;;5123834;28;20181;-91
2021/12/15 01:02:55;;;;;;;23.15;17.05;;;12.70;99.90;;;;;;5128379;27;20215;-92
2021/12/15 01:06:21;;;;;;;23.10;17.90;;;9.00;99.90;;;;;;5117499;28;20238;-91
2021/12/15 01:09:47;;;;;;;28.48;19.17;;;13.50;99.90;;;;;;5107324;28;20701;-91
2021/12/15 01:19:53;;;;;;;25.95;17.23;;;9.00;99.90;;;;;;5092017;28;20188;-91
2021/12/15 01:23:17;;;;;;;23.10;17.80;;;8.70;99.90;;;;;;5089411;28;20663;-90
2021/12/15 01:26:46;;;;;;;24.45;17.80;;;8.80;99.90;;;;;;5090647;28;20206;-91
2021/12/15 01:30:11;;;;;;;25.92;18.75;;;10.90;99.90;;;;;;5090613;28;20174;-91
2021/12/15 01:33:36;;;;;;;26.92;15.70;;;7.30;99.90;;;;;;5090372;28;20180;-91
2021/12/15 01:37:02;;;;;;;21.88;15.82;;;11.60;99.90;;;;;;5093258;28;20169;-92
2021/12/15 01:40:34;;;;;;;22.35;15.60;;;11.50;99.90;;;;;;5090364;28;20925;-92
2021/12/15 01:47:36;;;;;;;21.52;16.85;;;12.40;99.90;;;;;;5058379;28;20302;-90
2021/12/15 01:51:02;;;;;;;24.10;15.77;;;8.80;99.90;;;;;;5090946;28;20185;-91
2021/12/15 01:54:27;;;;;;;18.10;15.40;;;10.40;99.90;;;;;;5091434;28;20190;-91
2021/12/15 01:57:52;;;;;;;18.88;16.27;;;10.20;99.90;;;;;;5099128;28;20182;-91
2021/12/15 02:01:18;;;;;;;20.65;15.45;;;10.50;99.90;;;;;;5092309;28;20250;-91
2021/12/15 02:04:43;;;;;;;19.10;16.40;;;7.80;99.90;;;;;;5091583;28;20181;-90
2021/12/15 02:08:09;;;;;;;18.30;14.70;;;7.60;99.90;;;;;;5110696;28;20210;-92
2021/12/15 02:11:34;;;;;;;16.90;14.85;;;7.80;99.90;;;;;;5110869;28;20181;-91
2021/12/15 02:14:59;;;;;;;20.88;15.32;;;9.30;99.90;;;;;;5111170;28;20166;-90
2021/12/15 02:18:26;;;;;;;21.13;16.30;;;8.60;99.90;;;;;;5106544;28;20178;-91
2021/12/15 02:21:50;;;;;;;20.65;15.23;;;8.00;99.90;;;;;;5089367;28;20231;-92
2021/12/15 02:25:16;;;;;;;18.40;14.07;;;9.70;99.90;;;;;;5094786;28;20166;-91
2021/12/15 02:28:41;;;;;;;22.95;15.88;;;11.90;99.90;;;;;;5090485;28;20174;-91
2021/12/15 02:32:25;;;;;;;29.23;17.70;;;9.30;99.90;;;;;;5088785;28;20602;-92
2021/12/15 02:39:07;;;;;;;23.23;15.25;;;10.90;99.90;;;;;;5088100;28;20177;-91
2021/12/15 02:42:30;;;;;;;29.63;16.73;;;6.70;99.90;;;;;;5089588;28;20257;-91
2021/12/15 02:45:55;;;;;;;16.65;13.48;;;10.20;99.90;;;;;;5092205;28;20181;-92
2021/12/15 02:49:20;;;;;;;23.77;16.92;;;11.80;99.90;;;;;;5091148;28;20222;-92
2021/12/15 02:52:46;;;;;;;25.80;17.13;;;9.80;99.90;;;;;;5091640;28;20177;-92
2021/12/15 02:56:14;;;;;;;20.92;15.57;;;11.50;99.90;;;;;;5093129;28;20238;-92
2021/12/15 02:59:55;;;;;;;24.13;16.38;;;7.10;99.90;;;;;;5093578;28;20251;-91
2021/12/15 03:06:57;;;;;;;25.73;18.65;;;9.20;99.90;;;;;;5084638;28;20232;-91
2021/12/15 03:17:02;;;;;;;25.35;17.95;;;10.30;99.90;;;;;;5091523;28;20185;-91
2021/12/15 03:20:27;;;;;;;34.38;19.30;;;6.90;99.90;;;;;;5091590;28;20170;-91
2021/12/15 03:23:40;;;;;;;29.60;18.20;;;8.90;99.90;;;;;;5091985;28;20205;-91
2021/12/15 03:27:19;;;;;;;33.20;19.83;;;9.50;99.90;;;;;;5090063;28;20213;-91
2021/12/15 03:37:23;;;;;;;30.52;19.42;;;7.80;99.90;;;;;;5092648;28;20572;-91
2021/12/15 03:40:41;;;;;;;31.27;19.98;;;8.20;99.90;;;;;;5090572;28;20174;-91
2021/12/15 03:44:04;;;;;;;28.20;18.88;;;8.80;99.90;;;;;;5090898;28;20173;-91
2021/12/15 03:47:30;;;;;;;24.27;16.98;;;9.30;99.90;;;;;;5090713;28;20248;-90
2021/12/15 03:50:56;;;;;;;23.30;16.83;;;8.90;99.90;;;;;;5090795;28;20180;-91
2021/12/15 03:54:20;;;;;;;28.83;19.10;;;8.90;99.90;;;;;;4752733;28;10000455;-90
2021/12/15 03:57:46;;;;;;;27.17;15.93;;;8.90;99.90;;;;;;5109384;28;20177;-90
2021/12/15 04:01:17;;;;;;;24.35;16.35;;;8.10;99.90;;;;;;5107894;28;20193;-91
2021/12/15 04:04:43;;;;;;;30.48;17.80;;;9.00;99.90;;;;;;5109476;28;20210;-91
2021/12/15 04:08:08;;;;;;;26.05;17.55;;;11.90;99.90;;;;;;5108149;28;20209;-90
2021/12/15 04:11:35;;;;;;;25.70;16.90;;;8.50;99.90;;;;;;5108555;28;20210;-91
2021/12/15 04:15:25;;;;;;;28.92;16.35;;;11.40;99.90;;;;;;5108503;28;20219;-90
2021/12/15 04:18:24;;;;;;;27.17;17.27;;;6.50;99.90;;;;;;5106101;28;20169;-90
2021/12/15 04:21:52;;;;;;;29.98;18.23;;;9.00;99.90;;;;;;5100186;28;20180;-89
2021/12/15 04:25:15;;;;;;;23.25;14.93;;;9.80;99.90;;;;;;5110303;28;20161;-92
2021/12/15 04:28:53;;;;;;;24.90;16.27;;;8.10;99.90;;;;;;5115804;28;20219;-90
2021/12/15 04:32:18;;;;;;;27.90;18.00;;;8.90;99.90;;;;;;5113731;28;20166;-90
2021/12/15 04:35:44;;;;;;;29.67;18.63;;;7.90;99.90;;;;;;5114936;28;20177;-89
2021/12/15 04:39:09;;;;;;;24.20;15.18;;;11.90;99.90;;;;;;5113863;28;20162;-90
2021/12/15 04:42:37;;;;;;;26.35;15.70;;;11.60;99.90;;;;;;5118510;28;20165;-90
2021/12/15 04:46:00;;;;;;;19.75;13.90;;;10.00;99.90;;;;;;5101308;28;20251;-91
2021/12/15 04:49:26;;;;;;;22.88;15.20;;;9.70;99.90;;;;;;5106181;28;20229;-91
2021/12/15 04:52:51;;;;;;;21.05;15.60;;;9.00;99.90;;;;;;5093203;28;20185;-90
2021/12/15 04:56:16;;;;;;;18.45;13.30;;;7.70;99.90;;;;;;5091981;28;20170;-92
2021/12/15 04:59:42;;;;;;;20.45;14.27;;;11.00;99.90;;;;;;5092890;28;20205;-90
2021/12/15 05:03:07;;;;;;;20.25;13.88;;;8.90;99.90;;;;;;5091628;28;20192;-91
2021/12/15 05:06:43;;;;;;;;;;;;;;;;;;;;;
2021/12/15 05:09:56;;;;;;;17.92;13.98;;;10.40;99.90;;;;;;5092890;28;20694;-91
2021/12/15 05:13:21;;;;;;;19.75;15.02;;;9.60;99.90;;;;;;5100050;28;20182;-91
2021/12/15 05:16:47;;;;;;;20.02;13.23;;;7.70;99.90;;;;;;5098626;28;20178;-92
2021/12/15 05:20:12;;;;;;;16.40;12.95;;;7.30;99.90;;;;;;5093430;28;20230;-92
2021/12/15 05:23:37;;;;;;;21.25;14.63;;;9.20;99.90;;;;;;5092170;28;20308;-91
2021/12/15 05:27:03;;;;;;;17.77;12.70;;;9.70;99.90;;;;;;5093891;28;20236;-90
2021/12/15 05:30:28;;;;;;;23.23;14.90;;;11.10;99.90;;;;;;5096697;28;20170;-91
2021/12/15 05:33:54;;;;;;;24.77;15.55;;;9.00;99.90;;;;;;5097271;28;20199;-93
2021/12/15 05:37:21;;;;;;;20.30;15.15;;;8.80;99.90;;;;;;5098981;28;20264;-91
2021/12/15 05:40:45;;;;;;;20.83;14.75;;;11.50;99.90;;;;;;5096939;28;20204;-93
2021/12/15 05:44:10;;;;;;;24.50;17.42;;;8.50;99.90;;;;;;5096653;28;20170;-93
2021/12/15 05:47:35;;;;;;;26.45;16.48;;;10.50;99.90;;;;;;5098072;28;20218;-92
2021/12/15 05:51:01;;;;;;;25.48;14.98;;;11.50;99.90;;;;;;5095118;28;20496;-92
2021/12/15 05:54:27;;;;;;;22.55;16.70;;;8.70;99.90;;;;;;5094644;28;20247;-93
2021/12/15 05:57:52;;;;;;;24.88;17.42;;;11.30;99.90;;;;;;5093734;28;20318;-93
2021/12/15 06:01:17;;;;;;;23.17;15.60;;;8.90;99.90;;;;;;5094847;28;20327;-91
2021/12/15 06:04:42;;;;;;;23.27;16.52;;;8.20;99.90;;;;;;5094314;28;20382;-93
2021/12/15 06:08:10;;;;;;;25.10;16.20;;;11.10;99.90;;;;;;5100317;28;20209;-93
2021/12/15 06:11:33;;;;;;;21.95;14.27;;;8.40;99.90;;;;;;5095228;28;20170;-92
2021/12/15 06:15:02;;;;;;;24.50;15.25;;;9.40;99.90;;;;;;5094379;28;20178;-92
2021/12/15 06:18:27;;;;;;;20.35;13.75;;;9.70;99.90;;;;;;5106489;28;20174;-92
2021/12/15 06:21:53;;;;;;;22.13;13.25;;;10.70;99.90;;;;;;5112728;28;20178;-93
2021/12/15 06:25:18;;;;;;;18.55;13.13;;;9.30;99.90;;;;;;5108488;28;20258;-90
2021/12/15 06:28:43;;;;;;;23.73;14.05;;;7.50;99.90;;;;;;5105709;28;20210;-90
2021/12/15 06:32:09;;;;;;;14.88;11.90;;;10.00;99.90;;;;;;5107766;28;20193;-93
2021/12/15 06:35:35;;;;;;;19.02;15.15;;;12.50;99.90;;;;;;5109590;28;20201;-93
2021/12/15 06:39:02;;;;;;;18.27;14.20;;;9.10;99.90;;;;;;5111140;28;20165;-89
2021/12/15 06:42:29;;;;;;;17.75;12.65;;;9.70;99.90;;;;;;5113698;28;20162;-91
2021/12/15 06:59:15;;;;;;;19.55;14.20;;;8.40;99.90;;;;;;5100667;28;20266;-92
2021/12/15 07:02:42;;;;;;;22.95;14.48;;;10.10;99.90;;;;;;5098845;28;20170;-92
2021/12/15 07:06:05;;;;;;;17.35;13.43;;;10.80;99.90;;;;;;5096047;28;20178;-92
2021/12/15 07:09:33;;;;;;;20.65;14.80;;;7.90;99.90;;;;;;5097768;28;20200;-90
2021/12/15 07:12:59;;;;;;;22.65;14.85;;;8.70;99.90;;;;;;5098829;28;20275;-92
2021/12/15 07:16:33;;;;;;;18.58;14.38;;;11.20;99.90;;;;;;5112473;28;20349;-93
2021/12/15 07:20:06;;;;;;;21.33;15.93;;;7.40;99.90;;;;;;5111901;28;20174;-94
2021/12/15 07:23:30;;;;;;;21.50;16.50;;;8.80;99.90;;;;;;5100146;28;20170;-94
2021/12/15 07:26:58;;;;;;;20.67;14.80;;;9.40;99.90;;;;;;5109622;28;20210;-93
2021/12/15 07:30:21;;;;;;;17.45;12.15;;;9.00;99.90;;;;;;5107312;28;20170;-91
2021/12/15 07:33:46;;;;;;;22.45;15.80;;;12.20;99.90;;;;;;5107624;28;20531;-94
2021/12/15 07:37:12;;;;;;;25.95;15.70;;;9.70;99.90;;;;;;5109040;28;20575;-93
2021/12/15 07:40:40;;;;;;;21.90;15.55;;;9.20;99.90;;;;;;5107999;28;20162;-88
2021/12/15 07:43:33;;;;;;;26.70;17.27;;;11.10;99.90;;;;;;5095871;22;20703;-83
2021/12/15 07:46:08;;;;;;;24.38;16.20;;;11.60;99.90;;;;;;4717399;28;10000389;-83
2021/12/15 07:48:39;;;;;;;20.00;15.50;;;8.50;99.90;;;;;;5064094;28;20232;-81
2021/12/15 07:51:08;;;;;;;24.92;16.98;;;10.70;99.90;;;;;;5069643;28;20230;-83
2021/12/15 07:53:35;;;;;;;24.33;16.73;;;6.60;99.90;;;;;;5085372;28;20230;-84
2021/12/15 07:56:04;;;;;;;22.90;17.10;;;10.40;99.90;;;;;;5071398;28;20174;-83
2021/12/15 07:58:40;;;;;;;;;;;;;;;;;;;;;
2021/12/15 08:01:07;;;;;;;34.40;17.73;;;8.80;99.90;;;;;;5087701;28;20180;-81
2021/12/15 08:03:38;;;;;;;22.38;16.70;;;9.30;99.90;;;;;;5069277;28;20543;-81
2021/12/15 08:06:05;;;;;;;22.58;16.65;;;10.60;99.90;;;;;;5068750;28;20257;-82
2021/12/15 08:08:31;;;;;;;25.52;16.35;;;10.40;99.90;;;;;;5069089;28;20177;-82
2021/12/15 08:10:57;;;;;;;23.53;17.10;;;9.20;99.90;;;;;;5087119;28;20250;-81
2021/12/15 08:13:34;;;;;;;24.38;16.80;;;9.80;99.90;;;;;;5087754;28;20613;-84
2021/12/15 08:16:19;;;;;;;25.48;17.17;;;9.30;99.90;;;;;;5069549;28;20173;-82
2021/12/15 08:18:46;;;;;;;22.85;16.95;;;10.40;99.90;;;;;;5087934;28;20162;-79
2021/12/15 08:21:13;;;;;;;22.67;16.35;;;10.30;99.90;;;;;;5067487;28;20205;-83
2021/12/15 08:23:39;;;;;;;28.13;17.20;;;10.20;99.90;;;;;;5071452;28;20182;-83
2021/12/15 08:26:05;;;;;;;24.57;16.30;;;9.20;99.90;;;;;;5088387;28;20196;-84
2021/12/15 08:28:34;;;;;;;26.80;17.67;;;9.20;99.90;;;;;;5078409;28;20849;-84
2021/12/15 08:31:04;;;;;;;28.92;18.98;;;11.90;99.90;;;;;;5068733;28;20174;-84
2021/12/15 08:33:33;;;;;;;28.00;18.08;;;8.50;99.90;;;;;;5067903;28;20235;-85
2021/12/15 08:36:12;;;;;;;29.05;16.23;;;9.80;99.90;;;;;;5050664;28;20179;-84
2021/12/15 08:38:43;;;;;;;31.05;18.48;;;9.20;99.90;;;;;;5050294;28;20162;-84
2021/12/15 08:41:25;;;;;;;22.80;16.52;;;7.40;99.90;;;;;;5067972;28;20421;-85
2021/12/15 08:44:00;;;;;;;22.25;15.15;;;9.30;99.90;;;;;;5067302;28;20232;-82
2021/12/15 08:46:46;;;;;;;25.00;16.65;;;10.30;99.90;;;;;;5066950;28;20239;-83
2021/12/15 08:49:16;;;;;;;26.25;18.80;;;8.60;99.90;;;;;;5086699;28;20246;-83
2021/12/15 08:51:45;;;;;;;22.90;17.15;;;12.70;99.90;;;;;;5067520;28;20170;-81
2021/12/15 08:54:20;;;;;;;30.73;19.30;;;9.30;99.90;;;;;;5085253;28;20547;-83
2021/12/15 08:56:47;;;;;;;23.88;18.67;;;8.70;99.90;;;;;;5085111;28;20268;-83
2021/12/15 08:59:16;;;;;;;25.13;17.70;;;8.70;99.90;;;;;;5085367;28;20269;-83
2021/12/15 09:01:46;;;;;;;28.83;18.70;;;11.40;99.90;;;;;;5088791;28;20193;-83
2021/12/15 09:04:13;;;;;;;26.13;17.85;;;11.30;99.90;;;;;;5066942;28;20317;-81
2021/12/15 09:06:40;;;;;;;24.80;18.00;;;11.10;99.90;;;;;;5067579;28;20606;-81
2021/12/15 09:09:08;;;;;;;28.40;19.30;;;12.40;99.90;;;;;;5069800;28;20178;-77
2021/12/15 09:11:38;;;;;;;23.33;17.38;;;9.40;99.90;;;;;;5086673;28;20448;-81
2021/12/15 09:14:06;;;;;;;25.88;17.45;;;9.20;99.90;;;;;;5085759;28;20227;-82
2021/12/15 09:16:35;;;;;;;26.33;18.05;;;10.10;99.90;;;;;;5066316;28;20826;-83
2021/12/15 09:19:03;;;;;;;26.33;19.67;;;8.00;99.90;;;;;;5085149;28;20670;-82
2021/12/15 09:21:35;;;;;;;21.35;16.38;;;9.40;99.90;;;;;;5084242;28;20176;-83
2021/12/15 09:24:04;;;;;;;22.33;18.35;;;8.40;99.90;;;;;;5065711;28;20723;-82
2021/12/15 09:26:30;;;;;;;20.83;18.13;;;10.00;99.90;;;;;;5052805;28;20297;-79
2021/12/15 09:28:56;;;;;;;24.73;17.50;;;9.40;99.90;;;;;;5065722;28;20174;-78
2021/12/15 09:31:22;;;;;;;22.00;16.67;;;9.60;99.90;;;;;;5069892;28;20799;-80
2021/12/15 09:33:50;;;;;;;17.70;14.07;;;9.10;99.90;;;;;;5064248;28;20179;-80
2021/12/15 09:36:17;;;;;;;23.90;17.33;;;9.10;99.90;;;;;;5046550;28;20163;-81
2021/12/15 09:38:46;;;;;;;21.77;15.73;;;10.30;99.90;;;;;;5063954;28;20224;-80
2021/12/15 09:41:14;;;;;;;20.38;16.40;;;9.60;99.90;;;;;;5045439;28;20170;-81
2021/12/15 09:43:41;;;;;;;23.27;17.50;;;9.40;99.90;;;;;;5063122;28;20214;-83
2021/12/15 09:46:13;;;;;;;20.58;16.10;;;9.50;99.90;;;;;;5065194;28;20423;-81
2021/12/15 10:02:47;;;;;;;17.08;15.13;;;9.70;99.90;;;;;;5067807;28;20733;-81
2021/12/15 10:05:29;;;;;;;16.77;14.60;;;9.90;99.90;;;;;;5067886;28;20167;-81
2021/12/15 10:10:47;;;;;;;27.95;20.92;;;8.80;99.90;;;;;;5081835;28;20181;-80
2021/12/15 10:19:51;;;;;;;20.30;15.00;;;9.60;99.90;;;;;;5078344;28;20225;-79
2021/12/15 10:25:20;;;;;;;20.83;14.75;;;9.70;99.90;;;;;;5077158;28;20170;-82
2021/12/15 10:27:49;;;;;;;21.48;15.30;;;9.70;99.90;;;;;;5078318;28;20194;-81
2021/12/15 10:30:36;;;;;;;23.60;15.90;;;9.80;99.90;;;;;;5075957;28;20524;-80
2021/12/15 10:33:06;;;;;;;20.90;15.95;;;9.70;99.90;;;;;;5059356;28;20169;-80
2021/12/15 10:35:43;;;;;;;23.27;17.02;;;9.20;99.90;;;;;;5051503;28;20177;-80
2021/12/15 10:38:32;;;;;;;24.60;17.63;;;9.60;99.90;;;;;;5065171;28;20378;-82
2021/12/15 10:41:00;;;;;;;21.30;17.10;;;9.60;99.90;;;;;;5067031;28;20187;-81
2021/12/15 10:43:55;;;;;;;23.27;15.20;;;9.60;99.90;;;;;;5066543;28;20333;-77
2021/12/15 10:46:24;;;;;;;22.37;16.47;;;9.70;99.90;;;;;;5064842;28;20250;-80
2021/12/15 10:48:52;;;;;;;20.77;16.42;;;10.50;99.90;;;;;;5049010;28;20545;-77
2021/12/15 10:51:28;;;;;;;20.77;16.15;;;9.70;99.90;;;;;;5067872;28;20198;-79
2021/12/15 10:54:15;;;;;;;21.63;16.50;;;9.80;99.90;;;;;;5066776;28;20170;-82
2021/12/15 10:56:53;;;;;;;22.90;15.77;;;9.90;99.90;;;;;;5047718;28;20880;-83
2021/12/15 10:59:20;;;;;;;26.10;15.37;;;9.90;99.90;;;;;;5048137;28;20181;-82
2021/12/15 11:02:05;;;;;;;28.08;16.90;;;9.50;99.90;;;;;;5071127;28;20416;-81
2021/12/15 11:04:39;;;;;;;23.60;15.88;;;9.70;99.90;;;;;;5065938;28;20265;-77
2021/12/15 11:07:10;;;;;;;21.93;16.97;;;9.80;99.90;;;;;;5080964;28;20219;-80
2021/12/15 11:09:48;;;;;;;23.33;15.70;;;9.00;99.90;;;;;;5066807;28;20412;-82
2021/12/15 11:12:43;;;;;;;20.93;15.77;;;9.90;99.90;;;;;;5085900;28;20920;-81
2021/12/15 11:15:17;;;;;;;19.55;14.75;;;9.90;99.90;;;;;;5085490;28;20420;-81
2021/12/15 11:17:55;;;;;;;18.67;13.93;;;9.90;99.90;;;;;;5100447;28;20556;-79
2021/12/15 11:20:24;;;;;;;21.38;15.85;;;10.40;99.90;;;;;;5075719;28;20197;-82
2021/12/15 11:22:54;;;;;;;20.85;15.20;;;9.90;99.90;;;;;;5065908;28;20247;-85
2021/12/15 11:25:49;;;;;;;18.23;13.63;;;11.50;99.90;;;;;;5076169;28;20192;-81
2021/12/15 11:28:34;;;;;;;22.13;16.47;;;10.00;99.90;;;;;;5087101;28;20229;-80
2021/12/15 11:31:12;;;;;;;23.13;16.15;;;10.10;99.90;;;;;;5087765;28;20416;-85
2021/12/15 11:33:45;;;;;;;23.02;15.68;;;10.00;99.90;;;;;;5066977;28;20887;-82
2021/12/15 11:36:10;;;;;;;18.35;15.15;;;10.00;99.90;;;;;;5048734;28;20174;-78
2021/12/15 11:38:59;;;;;;;;;;;;;;;;;;;;;
2021/12/15 11:41:27;;;;;;;18.90;13.77;;;9.90;99.90;;;;;;5087387;28;20170;-84
2021/12/15 11:43:59;;;;;;;18.02;15.40;;;9.60;99.90;;;;;;5068626;28;20654;-83
2021/12/15 11:46:37;;;;;;;20.37;15.27;;;11.30;99.90;;;;;;5067097;28;20208;-77
2021/12/15 11:49:13;;;;;;;21.38;13.15;;;8.80;99.90;;;;;;5085263;28;20515;-83
2021/12/15 11:51:54;;;;;;;20.02;15.38;;;10.30;99.90;;;;;;5087851;28;20172;-85
2021/12/15 11:54:34;;;;;;;22.48;15.77;;;10.00;99.90;;;;;;5091071;28;20242;-84
2021/12/15 11:57:34;;;;;;;18.70;14.50;;;10.30;99.90;;;;;;5067526;28;20190;-77
2021/12/15 12:00:08;;;;;;;18.60;14.98;;;10.10;99.90;;;;;;5055735;28;20194;-84
2021/12/15 12:02:40;;;;;;;16.17;13.45;;;10.60;99.90;;;;;;5054493;28;20186;-84
2021/12/15 12:05:34;;;;;;;20.33;14.95;;;14.10;99.90;;;;;;5057945;28;20289;-84
2021/12/15 12:08:24;;;;;;;16.98;14.70;;;10.00;99.90;;;;;;5065253;28;20297;-85
2021/12/15 12:10:53;;;;;;;15.93;14.05;;;10.80;99.90;;;;;;5073105;28;20193;-81
2021/12/15 12:13:27;;;;;;;18.48;15.32;;;10.70;99.90;;;;;;5071070;28;20189;-84
2021/12/15 12:15:59;;;;;;;17.15;13.82;;;11.80;99.90;;;;;;5086894;28;20722;-82
2021/12/15 12:18:27;;;;;;;21.30;15.27;;;11.20;99.90;;;;;;5061895;28;20197;-81
2021/12/15 12:21:00;;;;;;;16.95;14.38;;;8.50;99.90;;;;;;5089201;28;20405;-81
2021/12/15 12:23:28;;;;;;;18.92;14.68;;;10.00;99.90;;;;;;5070313;28;20275;-82
2021/12/15 12:25:57;;;;;;;17.42;15.43;;;10.20;99.90;;;;;;5078832;28;20235;-79
2021/12/15 12:28:29;;;;;;;19.33;14.73;;;9.90;99.90;;;;;;5052523;28;20322;-81
2021/12/15 12:31:04;;;;;;;16.90;15.05;;;10.00;99.90;;;;;;5080659;28;20220;-81
2021/12/15 12:33:30;;;;;;;25.00;15.93;;;10.10;99.90;;;;;;5064298;28;20201;-82
2021/12/15 12:36:08;;;;;;;20.70;14.93;;;10.10;99.90;;;;;;5090688;28;20505;-83
2021/12/15 12:38:37;;;;;;;20.95;16.98;;;10.20;99.90;;;;;;5072583;28;20218;-82
2021/12/15 12:41:03;;;;;;;20.85;16.20;;;9.50;99.90;;;;;;5080365;28;20197;-83
2021/12/15 12:43:37;;;;;;;17.90;14.57;;;11.10;99.90;;;;;;5068910;28;20225;-81
2021/12/15 12:46:22;;;;;;;18.13;16.17;;;10.10;99.90;;;;;;5055416;28;20193;-81
2021/12/15 13:00:22;;;;;;;24.77;18.10;;;10.10;99.90;;;;;;5077051;28;20193;-81
2021/12/15 13:02:51;;;;;;;18.50;15.25;;;10.10;99.90;;;;;;5072353;28;20454;-80
2021/12/15 13:05:41;;;;;;;23.45;18.45;;;10.20;99.90;;;;;;5073524;28;20190;-80
2021/12/15 13:08:23;;;;;;;24.75;18.27;;;10.20;99.90;;;;;;5081930;28;20279;-80
2021/12/15 13:11:05;;;;;;;23.90;19.37;;;10.20;99.90;;;;;;5079493;28;20198;-81
2021/12/15 13:13:35;;;;;;;23.42;15.93;;;10.20;99.90;;;;;;5085119;28;20454;-80
2021/12/15 13:16:11;;;;;;;22.50;17.83;;;10.20;99.90;;;;;;5074472;28;20198;-80
2021/12/15 13:19:02;;;;;;;18.65;16.08;;;10.20;99.90;;;;;;5078373;28;20501;-80
2021/12/15 13:30:46;;;;;;;23.37;18.47;;;10.20;99.90;;;;;;5060815;28;20525;-77
2021/12/15 13:33:27;;;;;;;26.55;15.27;;;10.20;99.90;;;;;;5089296;28;20860;-81
2021/12/15 13:36:02;;;;;;;27.33;17.43;;;10.20;99.90;;;;;;5072487;28;20232;-80
2021/12/15 13:38:37;;;;;;;25.77;16.88;;;10.90;99.90;;;;;;5056549;28;20434;-79
2021/12/15 13:42:00;;;;;;;23.58;16.15;;;9.70;99.90;;;;;;5073355;28;20229;-80
2021/12/15 13:44:24;;;;;;;21.60;16.23;;;10.20;99.90;;;;;;5072012;28;20255;-81
2021/12/15 13:47:09;;;;;;;26.98;18.60;;;10.30;99.90;;;;;;5072050;28;20206;-80
2021/12/15 13:49:44;;;;;;;22.08;16.15;;;10.30;99.90;;;;;;5074149;28;20193;-81
2021/12/15 13:52:30;;;;;;;23.83;18.47;;;10.30;99.90;;;;;;5055279;28;20188;-80
2021/12/15 13:55:16;;;;;;;25.00;19.10;;;10.20;99.90;;;;;;5059549;28;20863;-82
2021/12/15 13:58:01;;;;;;;23.63;17.53;;;10.30;99.90;;;;;;5073474;28;20884;-80
2021/12/15 14:00:49;;;;;;;23.50;17.85;;;10.20;99.90;;;;;;5076009;28;20472;-81
2021/12/15 14:03:20;;;;;;;25.58;17.70;;;10.10;99.90;;;;;;5076248;28;20439;-81
2021/12/15 14:05:49;;;;;;;22.70;17.20;;;10.80;99.90;;;;;;5054928;28;20273;-81
2021/12/15 14:08:28;;;;;;;22.77;16.00;;;10.30;99.90;;;;;;5078462;28;20473;-79
2021/12/15 14:10:56;;;;;;;21.65;17.27;;;10.30;99.90;;;;;;5055245;28;20198;-79
2021/12/15 14:13:35;;;;;;;30.47;18.33;;;10.70;99.90;;;;;;4706581;28;10000146;-79
2021/12/15 14:16:01;;;;;;;25.67;18.27;;;10.30;99.90;;;;;;5054781;28;20268;-78
2021/12/15 14:18:31;;;;;;;28.40;18.63;;;10.30;99.90;;;;;;5082617;28;20517;-79
2021/12/15 14:21:32;;;;;;;25.88;17.90;;;10.30;99.90;;;;;;5079514;28;20589;-81
2021/12/15 14:23:58;;;;;;;24.63;18.40;;;10.10;99.90;;;;;;5060411;28;20197;-81
2021/12/15 14:26:27;;;;;;;28.20;17.77;;;10.70;99.90;;;;;;5080738;28;20474;-82
2021/12/15 14:28:58;;;;;;;29.48;19.20;;;9.10;99.90;;;;;;5062276;28;20448;-81
2021/12/15 14:31:31;;;;;;;26.90;17.60;;;10.60;99.90;;;;;;5077558;28;20599;-82
2021/12/15 14:34:04;;;;;;;25.45;16.40;;;10.30;99.90;;;;;;5063530;28;20419;-78
2021/12/15 14:36:40;;;;;;;24.57;17.27;;;10.30;99.90;;;;;;5065176;28;20190;-82
2021/12/15 14:39:10;;;;;;;26.50;18.80;;;10.40;99.90;;;;;;5080945;28;20438;-83
2021/12/15 14:41:39;;;;;;;26.30;18.13;;;12.10;99.90;;;;;;5087120;28;21212;-82
2021/12/15 14:44:11;;;;;;;25.67;16.30;;;10.90;99.90;;;;;;5082796;28;20279;-84
2021/12/15 14:46:46;;;;;;;27.07;19.60;;;10.30;99.90;;;;;;5063038;28;20498;-84
2021/12/15 14:49:29;;;;;;;25.50;19.73;;;10.30;99.90;;;;;;5064212;28;21011;-82
2021/12/15 14:52:04;;;;;;;26.93;19.03;;;12.70;99.90;;;;;;5080106;28;20265;-82
2021/12/15 14:54:31;;;;;;;27.20;19.30;;;12.50;99.90;;;;;;5082826;28;20431;-82
2021/12/15 14:57:04;;;;;;;26.47;17.10;;;10.40;99.90;;;;;;5083703;28;20460;-83
2021/12/15 14:59:31;;;;;;;26.70;19.73;;;10.20;99.90;;;;;;5072307;28;20448;-82
2021/12/15 15:02:08;;;;;;;27.55;20.30;;;12.20;99.90;;;;;;5062669;28;20439;-78
2021/12/15 15:04:36;;;;;;;28.35;18.63;;;10.40;99.90;;;;;;5057396;28;20656;-83
2021/12/15 15:07:05;;;;;;;29.07;22.90;;;9.80;99.90;;;;;;5063220;28;20247;-81
2021/12/15 15:09:41;;;;;;;28.97;19.77;;;9.20;99.90;;;;;;5070249;28;20446;-83
2021/12/15 15:12:11;;;;;;;34.70;20.98;;;10.40;99.90;;;;;;5054943;28;20470;-82
2021/12/15 15:14:42;;;;;;;28.23;20.10;;;10.40;99.90;;;;;;5066337;28;20726;-83
2021/12/15 15:17:54;;;;;;;30.77;20.50;;;10.50;99.90;;;;;;5081484;28;20174;-82
2021/12/15 15:20:27;;;;;;;30.27;18.80;;;10.50;99.90;;;;;;5065363;28;20552;-82
2021/12/15 15:22:55;;;;;;;26.50;18.90;;;10.40;99.90;;;;;;5069926;28;20432;-83
2021/12/15 15:25:25;;;;;;;29.30;21.08;;;10.30;99.90;;;;;;5062352;28;20813;-82
2021/12/15 15:27:58;;;;;;;27.23;20.70;;;10.30;99.90;;;;;;5068344;28;20602;-81
2021/12/15 15:30:28;;;;;;;30.90;20.63;;;10.30;99.90;;;;;;5080352;28;20193;-84
2021/12/15 15:32:58;;;;;;;29.23;20.50;;;10.30;99.90;;;;;;5066522;28;20427;-81
2021/12/15 15:35:29;;;;;;;25.13;20.40;;;10.40;99.90;;;;;;5089175;28;20208;-79
2021/12/15 15:38:11;;;;;;;30.25;20.50;;;10.20;99.90;;;;;;5089662;28;21137;-80
2021/12/15 15:40:43;;;;;;;31.67;19.23;;;10.20;99.90;;;;;;5087287;28;20186;-78
2021/12/15 15:43:32;;;;;;;28.83;20.27;;;10.20;99.90;;;;;;5068920;28;20502;-80
2021/12/15 15:45:59;;;;;;;36.10;21.25;;;10.60;99.90;;;;;;5080161;28;20209;-81
2021/12/15 15:48:28;;;;;;;30.30;19.40;;;9.80;99.90;;;;;;5101586;28;20218;-80
2021/12/15 15:50:59;;;;;;;29.77;22.70;;;9.20;99.90;;;;;;5092849;28;20205;-80
2021/12/15 15:53:25;;;;;;;29.38;21.50;;;9.40;99.90;;;;;;5064316;28;20174;-79
2021/12/15 15:55:55;;;;;;;30.02;21.55;;;10.20;99.90;;;;;;5099054;28;20584;-81
2021/12/15 15:58:21;;;;;;;30.77;19.88;;;12.40;99.90;;;;;;5088348;28;20216;-80
2021/12/15 16:00:56;;;;;;;31.85;21.33;;;10.10;99.90;;;;;;5097837;28;20268;-77
2021/12/15 16:03:26;;;;;;;28.45;18.40;;;10.30;99.90;;;;;;5072039;28;20189;-80
2021/12/15 16:05:56;;;;;;;29.30;20.60;;;10.30;99.90;;;;;;5083417;28;20190;-82
2021/12/15 16:08:23;;;;;;;31.73;22.20;;;10.40;99.90;;;;;;5090110;28;20466;-80
2021/12/15 16:10:53;;;;;;;29.42;20.38;;;10.10;99.90;;;;;;5096750;28;20190;-80
2021/12/15 16:13:19;;;;;;;27.65;21.33;;;10.20;99.90;;;;;;4723913;28;9999873;-81
2021/12/15 16:16:09;;;;;;;28.65;20.83;;;10.20;99.90;;;;;;5081008;28;20189;-79
2021/12/15 16:18:42;;;;;;;31.08;21.88;;;10.20;99.90;;;;;;5065827;28;20198;-81
2021/12/15 16:22:49;;;;;;;32.40;20.23;;;10.20;99.90;;;;;;5080398;28;20186;-80
2021/12/15 16:24:08;;;;;;;27.27;19.48;;;10.70;99.90;;;;;;5083236;28;20202;-82
2021/12/15 16:26:34;;;;;;;30.50;20.63;;;10.20;99.90;;;;;;5060936;28;20219;-80